Time;durP1;ratioP1;P1;durP2;ratioP2;P2;SDS_P1;SDS_P2;PMS_P1;PMS_P2;Temp;Humidity;BMP_temperature;BMP_pressure;BME280_temperature;BME280_humidity;BME280_pressure;Samples;Min_cycle;Max_cycle;Signal;HPM_P1;HPM_P2
2021/07/23 00:01:47;;;;;;;2.30;0.83;;;21.00;99.90;;;;;;5033444;28;20033;-85
2021/07/23 00:04:13;;;;;;;2.08;1.60;;;21.00;99.90;;;;;;5036596;28;20056;-85
2021/07/23 00:06:38;;;;;;;2.43;1.60;;;20.90;99.90;;;;;;5036985;28;20099;-85
2021/07/23 00:09:04;;;;;;;0.80;0.80;;;20.70;99.90;;;;;;5039627;28;20524;-85
2021/07/23 00:11:30;;;;;;;2.47;1.33;;;20.90;99.90;;;;;;5038041;28;20460;-85
2021/07/23 00:13:56;;;;;;;1.40;1.08;;;20.90;99.90;;;;;;5038511;28;20079;-85
2021/07/23 00:16:22;;;;;;;5.83;1.80;;;21.00;99.90;;;;;;5042010;28;20052;-85
2021/07/23 00:18:47;;;;;;;1.53;1.40;;;20.90;99.90;;;;;;5033150;28;20115;-85
2021/07/23 00:21:13;;;;;;;1.47;1.00;;;20.90;99.90;;;;;;5036060;28;20025;-85
2021/07/23 00:23:39;;;;;;;6.60;2.37;;;20.90;99.90;;;;;;5033021;28;20468;-85
2021/07/23 00:26:14;;;;;;;1.80;1.27;;;20.80;99.90;;;;;;5038794;28;20044;-85
2021/07/23 00:28:40;;;;;;;1.45;1.30;;;20.70;99.90;;;;;;5037519;28;20138;-86
2021/07/23 00:31:06;;;;;;;;;;;20.80;99.90;;;;;;5034095;28;20029;-85
2021/07/23 00:33:32;;;;;;;0.80;0.80;;;20.80;99.90;;;;;;5032033;28;20304;-84
2021/07/23 00:35:58;;;;;;;1.25;0.98;;;20.70;99.90;;;;;;5031690;28;20036;-85
2021/07/23 00:38:23;;;;;;;2.03;1.20;;;20.80;99.90;;;;;;5030880;28;20029;-85
2021/07/23 00:40:49;;;;;;;1.83;0.77;;;20.70;99.90;;;;;;5030790;28;20043;-85
2021/07/23 00:43:15;;;;;;;5.18;1.10;;;20.80;99.90;;;;;;5030480;28;20116;-85
2021/07/23 00:45:41;;;;;;;0.88;0.88;;;20.70;99.90;;;;;;5038250;28;20738;-85
2021/07/23 00:48:07;;;;;;;1.40;1.03;;;20.50;99.90;;;;;;5032558;28;20128;-85
2021/07/23 00:50:34;;;;;;;1.10;1.10;;;20.60;99.90;;;;;;5030693;28;20041;-86
2021/07/23 00:52:59;;;;;;;0.90;0.90;;;20.50;99.90;;;;;;5039868;28;20076;-86
2021/07/23 00:55:26;;;;;;;1.13;1.07;;;20.50;99.90;;;;;;5030845;28;20061;-86
2021/07/23 00:57:56;;;;;;;1.45;1.17;;;20.40;99.90;;;;;;5036671;28;20306;-86
2021/07/23 01:00:22;;;;;;;1.25;1.15;;;20.40;99.90;;;;;;5033876;28;20018;-86
2021/07/23 01:02:48;;;;;;;2.00;1.37;;;20.40;99.90;;;;;;5034884;28;21631;-85
2021/07/23 01:05:14;;;;;;;1.55;1.45;;;20.10;99.90;;;;;;5038865;28;20091;-85
2021/07/23 01:07:40;;;;;;;0.60;0.60;;;20.20;99.90;;;;;;5032683;28;20409;-86
2021/07/23 01:10:06;;;;;;;2.63;1.57;;;20.30;99.90;;;;;;5040877;28;20742;-86
2021/07/23 01:12:35;;;;;;;1.65;0.95;;;20.20;99.90;;;;;;5045736;28;20055;-85
2021/07/23 01:15:02;;;;;;;1.33;0.65;;;20.20;99.90;;;;;;5034923;28;20567;-85
2021/07/23 01:17:28;;;;;;;0.77;0.77;;;20.30;99.90;;;;;;5035541;28;20120;-85
2021/07/23 01:20:00;;;;;;;7.57;1.35;;;20.40;99.90;;;;;;5038310;28;20113;-85
2021/07/23 01:22:28;;;;;;;1.98;1.75;;;20.30;99.90;;;;;;5043890;28;20014;-85
2021/07/23 01:24:55;;;;;;;0.70;0.70;;;20.20;99.90;;;;;;5034775;28;20452;-85
2021/07/23 01:27:21;;;;;;;1.67;0.98;;;20.20;99.90;;;;;;5038575;28;20036;-85
2021/07/23 01:29:47;;;;;;;1.13;1.08;;;20.30;99.90;;;;;;5035420;28;20064;-86
2021/07/23 01:32:13;;;;;;;3.53;1.40;;;20.40;99.90;;;;;;5040661;28;20065;-86
2021/07/23 01:34:39;;;;;;;0.60;0.60;;;20.10;99.90;;;;;;5041852;28;20492;-85
2021/07/23 01:37:05;;;;;;;2.97;2.10;;;20.00;99.90;;;;;;5035060;28;20455;-85
2021/07/23 01:39:33;;;;;;;2.78;1.45;;;20.00;99.90;;;;;;5035772;28;20060;-85
2021/07/23 01:41:59;;;;;;;1.42;1.17;;;20.00;99.90;;;;;;5037876;28;20075;-85
2021/07/23 01:44:25;;;;;;;3.33;1.08;;;20.00;99.90;;;;;;5052325;28;20030;-85
2021/07/23 01:46:50;;;;;;;3.40;1.20;;;20.00;99.90;;;;;;5046332;28;20033;-85
2021/07/23 01:49:16;;;;;;;1.00;0.90;;;19.90;99.90;;;;;;5039548;28;20063;-86
2021/07/23 01:51:42;;;;;;;3.63;1.23;;;19.90;99.90;;;;;;5044550;28;20484;-85
2021/07/23 01:54:08;;;;;;;3.30;0.87;;;19.90;99.90;;;;;;5038261;28;20028;-85
2021/07/23 01:56:33;;;;;;;1.57;0.67;;;19.80;99.90;;;;;;5039505;28;20046;-85
2021/07/23 01:58:59;;;;;;;0.73;0.73;;;20.10;99.90;;;;;;5039252;28;20025;-85
2021/07/23 02:01:25;;;;;;;3.27;1.80;;;20.00;99.90;;;;;;5033404;28;20032;-85
2021/07/23 02:03:51;;;;;;;4.30;1.73;;;20.00;99.90;;;;;;5036745;28;20061;-85
2021/07/23 02:06:17;;;;;;;4.13;2.50;;;19.90;99.90;;;;;;5042720;28;20033;-86
2021/07/23 02:08:42;;;;;;;2.53;0.93;;;19.90;99.90;;;;;;5031711;28;20017;-86
2021/07/23 02:11:08;;;;;;;0.80;0.77;;;19.80;99.90;;;;;;5032589;28;20037;-86
2021/07/23 02:13:34;;;;;;;0.70;0.70;;;19.80;99.90;;;;;;5037708;28;20067;-85
2021/07/23 02:16:03;;;;;;;0.97;0.87;;;19.70;99.90;;;;;;5038588;28;20021;-85
2021/07/23 02:18:29;;;;;;;0.77;0.77;;;19.70;99.90;;;;;;5040452;28;20087;-85
2021/07/23 02:20:55;;;;;;;1.10;1.10;;;19.60;99.90;;;;;;5034510;28;20067;-85
2021/07/23 02:23:21;;;;;;;1.37;1.27;;;19.70;99.90;;;;;;5031330;28;20037;-86
2021/07/23 02:25:46;;;;;;;0.90;0.90;;;19.60;99.90;;;;;;5041543;28;20025;-85
2021/07/23 02:28:12;;;;;;;2.80;0.80;;;19.50;99.90;;;;;;5032154;28;20041;-85
2021/07/23 02:30:39;;;;;;;1.40;1.13;;;19.50;99.90;;;;;;5036747;28;20068;-85
2021/07/23 02:33:05;;;;;;;3.30;1.67;;;19.40;99.90;;;;;;5034291;28;20064;-86
2021/07/23 02:35:31;;;;;;;2.38;1.52;;;19.40;99.90;;;;;;5033850;28;20061;-86
2021/07/23 02:37:57;;;;;;;2.07;1.30;;;19.40;99.90;;;;;;5037260;28;20124;-86
2021/07/23 02:40:22;;;;;;;1.87;1.47;;;19.40;99.90;;;;;;5035306;28;20053;-86
2021/07/23 02:42:48;;;;;;;1.23;1.10;;;19.70;99.90;;;;;;5034832;28;20067;-86
2021/07/23 02:45:14;;;;;;;1.23;1.10;;;19.70;99.90;;;;;;5039361;28;20410;-85
2021/07/23 02:47:40;;;;;;;1.17;1.10;;;19.50;99.90;;;;;;5034968;28;20115;-85
2021/07/23 02:50:06;;;;;;;3.40;1.33;;;19.50;99.90;;;;;;5041490;28;20136;-85
2021/07/23 02:52:32;;;;;;;1.55;1.10;;;19.50;99.90;;;;;;5034459;28;20041;-85
2021/07/23 02:54:58;;;;;;;5.63;1.33;;;19.40;99.90;;;;;;5034587;28;20031;-85
2021/07/23 02:57:23;;;;;;;1.33;1.23;;;19.40;99.90;;;;;;5034934;28;20504;-84
2021/07/23 02:59:49;;;;;;;1.50;0.83;;;19.50;99.90;;;;;;5037069;28;20132;-85
2021/07/23 03:02:15;;;;;;;0.80;0.80;;;19.50;99.90;;;;;;5032070;28;20064;-85
2021/07/23 03:04:41;;;;;;;0.53;0.50;;;19.30;99.90;;;;;;5047026;28;20037;-85
2021/07/23 03:07:06;;;;;;;2.27;1.57;;;19.20;99.90;;;;;;5045041;28;20024;-85
2021/07/23 03:09:32;;;;;;;1.17;1.17;;;19.10;99.90;;;;;;5040113;28;20078;-86
2021/07/23 03:11:59;;;;;;;1.57;1.20;;;19.20;99.90;;;;;;5036100;28;20029;-85
2021/07/23 03:14:25;;;;;;;1.17;1.08;;;19.30;99.90;;;;;;5036736;28;20296;-85
2021/07/23 03:16:51;;;;;;;0.83;0.83;;;19.30;99.90;;;;;;5036158;28;20040;-85
2021/07/23 03:19:16;;;;;;;1.07;0.97;;;19.30;99.90;;;;;;5031183;28;20037;-85
2021/07/23 03:21:42;;;;;;;2.47;1.33;;;19.00;99.90;;;;;;5034170;28;20025;-85
2021/07/23 03:24:08;;;;;;;2.30;1.73;;;19.00;99.90;;;;;;5041052;28;20116;-85
2021/07/23 03:26:34;;;;;;;0.67;0.67;;;19.10;99.90;;;;;;5034366;28;20048;-85
2021/07/23 03:29:00;;;;;;;4.33;1.17;;;19.10;99.90;;;;;;5029564;28;20037;-85
2021/07/23 03:31:25;;;;;;;0.70;0.70;;;19.00;99.90;;;;;;5034280;28;20179;-86
2021/07/23 03:33:52;;;;;;;2.03;1.13;;;18.90;99.90;;;;;;5045169;28;20032;-85
2021/07/23 03:36:17;;;;;;;4.85;1.80;;;19.00;99.90;;;;;;5035220;28;20037;-85
2021/07/23 03:38:43;;;;;;;1.60;1.23;;;19.10;99.90;;;;;;5034908;28;20600;-86
2021/07/23 03:41:09;;;;;;;4.23;1.70;;;19.00;99.90;;;;;;5030802;28;20040;-86
2021/07/23 03:43:35;;;;;;;2.90;1.40;;;19.00;99.90;;;;;;5038485;28;20035;-86
2021/07/23 03:46:00;;;;;;;1.03;0.87;;;19.10;99.90;;;;;;5037416;28;20028;-86
2021/07/23 03:48:26;;;;;;;1.80;1.33;;;19.20;99.90;;;;;;5041919;28;20025;-86
2021/07/23 03:50:52;;;;;;;0.53;0.53;;;19.10;99.90;;;;;;5038567;28;20029;-86
2021/07/23 03:53:18;;;;;;;1.83;1.73;;;19.20;99.90;;;;;;5033232;28;20100;-85
2021/07/23 03:55:43;;;;;;;5.73;2.07;;;19.20;99.90;;;;;;5030843;28;20401;-86
2021/07/23 03:58:09;;;;;;;2.23;0.97;;;19.10;99.90;;;;;;5032961;28;20025;-85
2021/07/23 04:00:35;;;;;;;2.53;0.90;;;19.00;99.90;;;;;;5030288;28;20029;-85
2021/07/23 04:03:01;;;;;;;0.93;0.90;;;19.10;99.90;;;;;;5035147;28;21007;-85
2021/07/23 04:05:27;;;;;;;2.27;0.87;;;19.20;99.90;;;;;;5030538;28;20025;-85
2021/07/23 04:07:55;;;;;;;0.57;0.53;;;19.10;99.90;;;;;;5043810;28;20023;-85
2021/07/23 04:10:21;;;;;;;1.30;1.20;;;19.10;99.90;;;;;;5048602;28;20025;-85
2021/07/23 04:12:47;;;;;;;1.10;1.03;;;19.00;99.90;;;;;;5036379;28;20036;-85
2021/07/23 04:15:12;;;;;;;0.50;0.50;;;18.90;99.90;;;;;;5035162;28;20853;-85
2021/07/23 04:17:38;;;;;;;1.20;1.00;;;19.00;99.90;;;;;;5033191;28;20100;-85
2021/07/23 04:20:05;;;;;;;1.20;0.90;;;18.90;99.90;;;;;;5039917;28;20029;-85
2021/07/23 04:22:31;;;;;;;2.92;1.85;;;18.90;99.90;;;;;;5035627;28;20049;-86
2021/07/23 04:24:57;;;;;;;1.90;1.20;;;18.80;99.90;;;;;;5038142;28;20059;-85
2021/07/23 04:27:22;;;;;;;1.83;1.10;;;18.90;99.90;;;;;;5039231;28;20057;-87
2021/07/23 04:29:48;;;;;;;1.13;1.03;;;18.90;99.90;;;;;;5037257;28;20025;-86
2021/07/23 04:32:14;;;;;;;0.77;0.77;;;19.00;99.90;;;;;;5037776;28;20032;-87
2021/07/23 04:34:40;;;;;;;0.93;0.93;;;19.00;99.90;;;;;;5032646;28;20040;-87
2021/07/23 04:37:05;;;;;;;1.97;0.70;;;19.00;99.90;;;;;;5031243;28;20548;-86
2021/07/23 04:39:31;;;;;;;2.87;1.17;;;19.00;99.90;;;;;;5034890;28;20017;-87
2021/07/23 04:41:57;;;;;;;1.03;0.90;;;18.90;99.90;;;;;;5035486;28;20513;-85
2021/07/23 04:44:23;;;;;;;0.93;0.90;;;18.90;99.90;;;;;;5039992;28;20061;-84
2021/07/23 04:46:49;;;;;;;1.77;1.23;;;18.80;99.90;;;;;;5034543;28;20029;-84
2021/07/23 04:49:15;;;;;;;1.85;0.68;;;18.90;99.90;;;;;;5036409;28;20508;-85
2021/07/23 04:51:41;;;;;;;0.50;0.50;;;18.80;99.90;;;;;;5033494;28;20037;-84
2021/07/23 04:54:07;;;;;;;0.20;0.20;;;19.00;99.90;;;;;;5042081;28;20048;-84
2021/07/23 04:56:32;;;;;;;1.07;0.93;;;19.00;99.90;;;;;;5041587;28;20049;-84
2021/07/23 04:58:58;;;;;;;3.40;1.07;;;19.20;99.90;;;;;;5038955;28;20032;-86
2021/07/23 05:01:24;;;;;;;3.70;1.60;;;19.40;99.90;;;;;;5042546;28;20404;-86
2021/07/23 05:03:50;;;;;;;4.00;0.93;;;19.40;99.90;;;;;;5040073;28;20033;-86
2021/07/23 05:06:16;;;;;;;2.40;1.20;;;19.30;99.90;;;;;;5034330;28;20576;-87
2021/07/23 05:08:42;;;;;;;2.07;1.90;;;19.40;99.90;;;;;;5043075;28;20033;-86
2021/07/23 05:11:15;;;;;;;0.83;0.33;;;19.70;99.90;;;;;;5038133;28;20060;-87
2021/07/23 05:13:42;;;;;;;6.30;1.35;;;19.70;99.90;;;;;;5036472;28;20087;-87
2021/07/23 05:16:09;;;;;;;2.28;0.73;;;19.60;99.90;;;;;;5045740;28;20021;-86
2021/07/23 05:18:37;;;;;;;2.38;1.17;;;19.80;99.90;;;;;;5037648;28;20164;-87
2021/07/23 05:21:05;;;;;;;1.50;1.17;;;19.80;99.90;;;;;;5041646;28;20036;-87
2021/07/23 05:23:33;;;;;;;0.88;0.88;;;19.90;99.90;;;;;;5050479;28;20108;-88
2021/07/23 05:25:59;;;;;;;0.80;0.50;;;20.10;99.90;;;;;;5044994;28;20074;-87
2021/07/23 05:28:26;;;;;;;2.38;1.23;;;20.10;99.90;;;;;;5036208;28;20029;-86
2021/07/23 05:30:52;;;;;;;0.70;0.70;;;20.80;99.90;;;;;;5038988;28;20136;-85
2021/07/23 05:33:17;;;;;;;1.93;1.30;;;21.20;99.90;;;;;;5035568;28;20541;-87
2021/07/23 05:35:43;;;;;;;0.87;0.60;;;20.60;99.90;;;;;;5051557;28;20032;-88
2021/07/23 05:38:14;;;;;;;0.70;0.70;;;20.90;99.90;;;;;;5050364;28;20021;-87
2021/07/23 05:40:40;;;;;;;0.73;0.73;;;21.00;99.90;;;;;;5051840;28;20095;-87
2021/07/23 05:43:06;;;;;;;0.80;0.80;;;20.60;99.90;;;;;;5037783;28;20848;-87
2021/07/23 05:45:31;;;;;;;0.40;0.40;;;20.00;99.90;;;;;;5031028;28;20041;-88
2021/07/23 05:47:58;;;;;;;1.33;1.20;;;19.90;99.90;;;;;;5030453;28;20056;-87
2021/07/23 05:50:24;;;;;;;2.60;0.95;;;19.80;99.90;;;;;;5030348;28;20124;-87
2021/07/23 05:52:49;;;;;;;4.57;2.17;;;19.80;99.90;;;;;;5032269;28;20120;-87
2021/07/23 05:55:15;;;;;;;1.20;1.10;;;19.90;99.90;;;;;;5030051;28;20056;-88
2021/07/23 05:57:41;;;;;;;2.37;1.23;;;20.00;99.90;;;;;;5031175;28;20026;-87
2021/07/23 06:00:07;;;;;;;0.90;0.90;;;20.80;99.90;;;;;;5047839;28;20054;-87
2021/07/23 06:02:33;;;;;;;2.88;2.13;;;21.10;99.90;;;;;;5045492;28;20489;-86
2021/07/23 06:04:59;;;;;;;1.27;1.10;;;22.20;99.90;;;;;;5045088;28;20024;-88
2021/07/23 06:07:25;;;;;;;1.77;0.93;;;23.20;98.50;;;;;;5047574;28;20396;-88
2021/07/23 06:09:51;;;;;;;0.50;0.50;;;22.90;97.80;;;;;;5040249;28;20119;-88
2021/07/23 06:12:16;;;;;;;0.70;0.70;;;24.10;96.00;;;;;;5043113;28;20917;-88
2021/07/23 06:14:42;;;;;;;3.63;0.70;;;24.60;93.80;;;;;;5034736;28;20060;-89
2021/07/23 06:17:08;;;;;;;0.80;0.80;;;23.80;94.90;;;;;;5034083;28;20071;-89
2021/07/23 06:19:36;;;;;;;0.38;0.38;;;24.60;92.90;;;;;;5044043;28;20017;-90
2021/07/23 06:22:05;;;;;;;3.25;1.35;;;25.40;90.20;;;;;;5038924;28;20029;-90
2021/07/23 06:24:33;;;;;;;0.43;0.43;;;25.50;89.20;;;;;;5036950;28;20036;-89
2021/07/23 06:26:59;;;;;;;0.70;0.70;;;25.90;87.70;;;;;;5028731;28;20021;-88
2021/07/23 06:29:25;;;;;;;0.40;0.40;;;25.60;85.40;;;;;;5037356;28;20106;-89
2021/07/23 06:31:51;;;;;;;1.27;0.63;;;25.80;85.20;;;;;;5030170;28;20036;-89
2021/07/23 06:34:16;;;;;;;0.65;0.55;;;26.00;83.10;;;;;;5030412;28;20033;-88
2021/07/23 06:36:42;;;;;;;4.55;0.60;;;26.30;78.80;;;;;;5036632;28;20813;-88
2021/07/23 06:39:08;;;;;;;0.32;0.32;;;25.40;82.70;;;;;;5042146;28;20386;-87
2021/07/23 06:41:34;;;;;;;1.92;0.73;;;24.50;85.10;;;;;;5028459;28;20040;-87
2021/07/23 06:43:59;;;;;;;0.45;0.45;;;25.70;85.90;;;;;;5029760;28;20096;-86
2021/07/23 06:46:25;;;;;;;1.27;1.17;;;26.70;77.70;;;;;;5030635;28;20037;-87
2021/07/23 06:48:51;;;;;;;0.80;0.80;;;24.80;79.40;;;;;;5046014;28;20452;-87
2021/07/23 06:51:17;;;;;;;1.60;1.23;;;23.80;83.70;;;;;;5030449;28;20033;-86
2021/07/23 06:53:42;;;;;;;0.40;0.40;;;23.30;88.60;;;;;;5045875;28;20021;-87
2021/07/23 06:56:08;;;;;;;3.00;1.13;;;23.10;89.70;;;;;;5030670;28;20372;-86
2021/07/23 06:58:34;;;;;;;0.40;0.40;;;24.20;84.90;;;;;;5030550;28;20318;-86
2021/07/23 07:01:05;;;;;;;1.63;1.52;;;25.70;82.30;;;;;;5030547;28;20034;-87
2021/07/23 07:03:31;;;;;;;0.93;0.82;;;28.80;71.80;;;;;;5045825;28;20022;-87
2021/07/23 07:05:58;;;;;;;0.75;0.75;;;28.30;66.10;;;;;;5030609;28;20026;-87
2021/07/23 07:08:24;;;;;;;0.88;0.82;;;28.90;64.70;;;;;;5029691;28;20021;-87
2021/07/23 07:10:50;;;;;;;;;;;29.10;60.10;;;;;;5031179;28;20535;-87
2021/07/23 07:13:16;;;;;;;0.50;0.50;;;29.00;62.60;;;;;;5045724;28;19905;-87
2021/07/23 07:15:42;;;;;;;0.75;0.73;;;28.40;57.30;;;;;;5030517;28;20472;-87
2021/07/23 07:18:08;;;;;;;1.75;0.90;;;26.20;69.50;;;;;;5045822;28;20044;-87
2021/07/23 07:20:34;;;;;;;0.38;0.38;;;25.70;69.00;;;;;;5030277;28;20026;-87
2021/07/23 07:23:00;;;;;;;2.45;0.98;;;25.20;68.20;;;;;;5045577;28;20090;-86
2021/07/23 07:25:27;;;;;;;1.10;0.60;;;26.80;69.30;;;;;;5030093;28;20022;-87
2021/07/23 07:27:57;;;;;;;1.23;1.10;;;30.10;58.00;;;;;;5046622;28;20515;-87
2021/07/23 07:30:23;;;;;;;0.40;0.25;;;32.60;49.20;;;;;;5050157;28;20858;-87
2021/07/23 07:32:49;;;;;;;3.70;1.15;;;32.10;45.50;;;;;;5043157;28;20109;-87
2021/07/23 07:35:16;;;;;;;1.10;0.75;;;28.50;49.60;;;;;;5029913;28;20030;-87
2021/07/23 07:37:41;;;;;;;4.57;0.55;;;31.10;44.90;;;;;;5029950;28;20049;-87
2021/07/23 07:40:08;;;;;;;1.50;0.98;;;31.90;43.40;;;;;;5029413;28;20059;-87
2021/07/23 07:42:34;;;;;;;2.55;0.80;;;31.90;40.10;;;;;;5028437;28;20040;-87
2021/07/23 07:45:00;;;;;;;0.85;0.85;;;33.40;35.50;;;;;;5030079;28;20037;-87
2021/07/23 07:47:26;;;;;;;0.28;0.28;;;33.00;30.30;;;;;;5029729;28;20527;-87
2021/07/23 07:49:52;;;;;;;2.60;1.05;;;34.60;29.30;;;;;;5029993;28;20029;-87
2021/07/23 07:52:19;;;;;;;;;;;34.50;24.00;;;;;;5029210;28;20026;-87
2021/07/23 07:54:47;;;;;;;1.90;0.95;;;33.80;29.10;;;;;;5029666;28;19924;-87
2021/07/23 07:57:13;;;;;;;0.63;0.63;;;34.30;28.50;;;;;;5029622;28;20045;-87
2021/07/23 07:59:39;;;;;;;;;;;34.00;28.20;;;;;;5030023;28;20029;-87
2021/07/23 08:02:09;;;;;;;1.45;1.35;;;35.80;22.90;;;;;;5028260;28;19917;-87
2021/07/23 08:04:35;;;;;;;0.20;0.20;;;38.10;17.90;;;;;;5027762;28;20764;-87
2021/07/23 08:07:01;;;;;;;0.52;0.35;;;38.50;15.00;;;;;;5028248;28;20030;-87
2021/07/23 08:09:27;;;;;;;1.38;0.43;;;37.00;16.10;;;;;;5027713;28;20132;-87
2021/07/23 08:11:54;;;;;;;0.98;0.52;;;35.70;14.60;;;;;;5028339;28;20473;-87
2021/07/23 08:14:19;;;;;;;0.20;0.20;;;33.60;20.80;;;;;;5029526;28;20025;-86
2021/07/23 08:16:46;;;;;;;;;;;35.40;19.70;;;;;;5029659;28;20029;-87
2021/07/23 08:19:13;;;;;;;0.43;0.43;;;37.30;13.60;;;;;;5027854;28;19963;-87
2021/07/23 08:21:39;;;;;;;0.52;0.50;;;37.40;10.50;;;;;;5029180;28;20034;-87
2021/07/23 08:24:05;;;;;;;0.95;0.68;;;37.70;8.80;;;;;;5029193;28;20041;-87
2021/07/23 08:26:31;;;;;;;0.25;0.25;;;39.20;9.40;;;;;;5029158;28;20029;-87
2021/07/23 08:28:57;;;;;;;0.40;0.40;;;39.20;5.00;;;;;;5029005;28;20033;-87
2021/07/23 08:31:23;;;;;;;0.30;0.30;;;39.90;4.30;;;;;;5039462;28;20033;-87
2021/07/23 08:33:49;;;;;;;1.27;0.85;;;38.70;4.00;;;;;;5033598;28;20047;-87
2021/07/23 08:36:15;;;;;;;1.42;0.93;;;37.60;12.50;;;;;;5029483;28;20096;-87
2021/07/23 08:38:40;;;;;;;0.60;0.60;;;39.80;1.70;;;;;;5029094;28;20068;-87
2021/07/23 08:41:10;;;;;;;0.10;0.10;;;39.70;6.40;;;;;;5029225;28;20018;-86
2021/07/23 08:43:37;;;;;;;0.30;0.30;;;39.70;2.70;;;;;;5027700;28;20025;-87
2021/07/23 08:46:03;;;;;;;0.93;0.80;;;42.40;1.00;;;;;;5028135;28;20824;-87
2021/07/23 08:48:28;;;;;;;0.47;0.47;;;41.90;1.00;;;;;;5029324;28;20101;-87
2021/07/23 08:50:54;;;;;;;1.35;0.70;;;42.10;1.00;;;;;;5027921;28;20036;-87
2021/07/23 08:53:20;;;;;;;1.65;1.00;;;40.10;1.00;;;;;;5027770;28;20041;-87
2021/07/23 08:55:46;;;;;;;0.30;0.30;;;42.00;1.00;;;;;;5028928;28;20053;-87
2021/07/23 08:58:12;;;;;;;2.22;0.73;;;41.90;1.00;;;;;;5027629;28;20146;-87
2021/07/23 09:00:39;;;;;;;0.20;0.20;;;42.30;1.00;;;;;;5028936;28;20068;-87
2021/07/23 09:03:08;;;;;;;1.00;0.73;;;42.50;1.00;;;;;;5027514;28;20030;-87
2021/07/23 09:05:45;;;;;;;0.70;0.70;;;41.70;1.00;;;;;;5027731;28;20061;-87
2021/07/23 09:08:18;;;;;;;0.43;0.43;;;43.00;1.00;;;;;;5028952;28;20029;-87
2021/07/23 09:10:45;;;;;;;0.73;0.73;;;41.60;1.00;;;;;;5028756;28;20036;-87
2021/07/23 09:13:20;;;;;;;0.55;0.40;;;42.10;1.00;;;;;;5028539;28;20056;-87
2021/07/23 09:15:45;;;;;;;0.60;0.60;;;44.20;1.00;;;;;;5028717;28;20083;-87
2021/07/23 09:18:33;;;;;;;0.80;0.52;;;43.10;1.00;;;;;;5028536;28;20268;-87
2021/07/23 09:21:06;;;;;;;0.82;0.70;;;43.60;1.00;;;;;;5028423;28;20032;-87
2021/07/23 09:23:33;;;;;;;1.63;0.82;;;41.50;1.00;;;;;;5028362;28;20104;-87
2021/07/23 09:26:11;;;;;;;2.47;1.23;;;41.80;1.00;;;;;;5026951;28;20049;-87
2021/07/23 09:28:39;;;;;;;0.65;0.63;;;41.40;1.00;;;;;;5026903;28;20029;-87
2021/07/23 09:31:06;;;;;;;0.28;0.20;;;42.00;1.00;;;;;;5028739;28;20095;-87
2021/07/23 09:33:38;;;;;;;0.77;0.70;;;40.80;1.00;;;;;;5030542;28;20029;-86
2021/07/23 09:36:07;;;;;;;0.85;0.30;;;43.00;1.00;;;;;;5031863;28;20808;-87
2021/07/23 09:38:44;;;;;;;0.20;0.20;;;38.70;1.00;;;;;;5030677;28;20029;-87
2021/07/23 09:41:12;;;;;;;0.15;0.08;;;39.00;1.00;;;;;;5031925;28;20817;-87
2021/07/23 09:43:43;;;;;;;0.38;0.38;;;40.80;1.00;;;;;;5031899;28;20032;-87
2021/07/23 09:46:17;;;;;;;0.20;0.20;;;42.40;1.00;;;;;;5031863;28;20026;-86
2021/07/23 09:48:44;;;;;;;1.20;0.82;;;44.40;1.00;;;;;;5031951;28;20029;-86
2021/07/23 09:51:10;;;;;;;1.00;0.60;;;47.00;1.00;;;;;;5031641;28;20063;-87
2021/07/23 09:53:36;;;;;;;0.20;0.20;;;46.20;1.00;;;;;;5031812;28;20025;-86
2021/07/23 09:56:07;;;;;;;4.13;0.98;;;41.80;1.00;;;;;;5031555;28;20049;-86
2021/07/23 09:58:37;;;;;;;0.52;0.52;;;40.80;1.00;;;;;;5030559;28;20052;-86
2021/07/23 10:01:08;;;;;;;0.50;0.40;;;41.80;1.00;;;;;;5031504;28;20052;-86
2021/07/23 10:03:36;;;;;;;1.80;0.90;;;44.30;1.00;;;;;;5031367;28;20080;-86
2021/07/23 10:06:17;;;;;;;0.73;0.47;;;43.40;1.00;;;;;;5030048;28;20030;-86
2021/07/23 10:08:49;;;;;;;0.55;0.40;;;40.10;1.00;;;;;;5031814;28;20047;-86
2021/07/23 10:11:20;;;;;;;0.10;0.10;;;41.90;1.00;;;;;;5031692;28;20036;-86
2021/07/23 10:13:48;;;;;;;2.55;0.30;;;44.50;1.00;;;;;;5031775;28;20105;-86
2021/07/23 10:16:14;;;;;;;0.40;0.40;;;44.10;1.00;;;;;;5031573;28;20835;-86
2021/07/23 10:18:41;;;;;;;0.63;0.63;;;44.90;1.00;;;;;;5030405;28;20579;-86
2021/07/23 10:21:09;;;;;;;1.50;0.52;;;40.10;1.00;;;;;;5031243;28;20105;-86
2021/07/23 10:23:37;;;;;;;2.67;1.25;;;40.50;1.00;;;;;;5031336;28;20037;-87
2021/07/23 10:26:04;;;;;;;0.77;0.50;;;40.20;1.00;;;;;;5031303;28;20025;-86
2021/07/23 10:28:46;;;;;;;0.68;0.68;;;43.50;1.00;;;;;;5031478;28;20057;-86
2021/07/23 10:31:18;;;;;;;2.08;0.40;;;46.30;1.00;;;;;;5030890;28;20551;-86
2021/07/23 10:33:51;;;;;;;1.35;0.88;;;44.90;1.00;;;;;;5029781;28;20029;-86
2021/07/23 10:36:26;;;;;;;2.60;0.60;;;44.30;1.00;;;;;;5029688;28;20509;-86
2021/07/23 10:39:13;;;;;;;0.30;0.28;;;44.50;1.00;;;;;;5031227;28;20032;-86
2021/07/23 10:41:46;;;;;;;1.67;0.90;;;45.40;1.00;;;;;;5031305;28;20026;-86
2021/07/23 10:44:27;;;;;;;0.68;0.68;;;41.40;1.00;;;;;;5029759;28;20029;-86
2021/07/23 10:46:53;;;;;;;0.95;0.60;;;41.60;1.00;;;;;;5031338;28;20030;-86
2021/07/23 10:49:28;;;;;;;0.55;0.40;;;40.90;1.00;;;;;;5031214;28;20033;-86
2021/07/23 10:51:55;;;;;;;0.45;0.45;;;43.30;1.00;;;;;;5030859;28;20025;-86
2021/07/23 10:54:24;;;;;;;0.70;0.60;;;44.60;1.00;;;;;;5030582;28;20096;-86
2021/07/23 10:57:11;;;;;;;0.77;0.60;;;43.30;1.00;;;;;;5030697;28;20504;-86
2021/07/23 11:02:31;;;;;;;0.57;0.57;;;43.70;1.00;;;;;;5031196;28;20468;-86
2021/07/23 11:05:07;;;;;;;1.05;0.93;;;42.60;1.00;;;;;;5030576;28;20073;-86
2021/07/23 11:07:33;;;;;;;0.85;0.70;;;40.30;1.00;;;;;;5029392;28;20022;-86
2021/07/23 11:09:58;;;;;;;;;;;40.40;1.00;;;;;;5030137;28;20115;-86
2021/07/23 11:12:25;;;;;;;0.60;0.50;;;38.30;1.00;;;;;;5030093;28;19970;-86
2021/07/23 11:14:55;;;;;;;1.02;0.82;;;35.50;1.00;;;;;;5030401;28;20025;-86
2021/07/23 11:17:21;;;;;;;0.20;0.20;;;36.50;1.00;;;;;;5030047;28;20448;-86
2021/07/23 11:19:52;;;;;;;1.65;0.73;;;37.00;1.00;;;;;;5030490;28;20022;-86
2021/07/23 11:22:26;;;;;;;0.40;0.40;;;36.20;1.00;;;;;;5030179;28;20036;-86
2021/07/23 11:25:14;;;;;;;0.43;0.43;;;35.00;1.00;;;;;;5030274;28;20083;-86
2021/07/23 11:27:42;;;;;;;0.28;0.28;;;36.10;1.00;;;;;;5029984;28;20036;-86
2021/07/23 11:30:24;;;;;;;0.80;0.50;;;35.60;1.00;;;;;;5030549;28;20097;-86
2021/07/23 11:32:55;;;;;;;0.50;0.47;;;35.50;1.00;;;;;;5028841;28;20797;-86
2021/07/23 11:35:23;;;;;;;2.42;0.88;;;35.40;1.00;;;;;;5029940;28;20548;-86
2021/07/23 11:37:49;;;;;;;0.45;0.43;;;35.40;1.00;;;;;;5030117;28;20037;-86
2021/07/23 11:40:17;;;;;;;0.63;0.55;;;35.30;1.00;;;;;;5030018;28;20124;-86
2021/07/23 11:42:51;;;;;;;0.50;0.50;;;35.00;1.00;;;;;;5030153;28;20033;-86
2021/07/23 11:45:19;;;;;;;1.70;0.70;;;34.50;1.00;;;;;;5028770;28;20095;-86
2021/07/23 11:47:49;;;;;;;1.75;0.75;;;35.00;1.00;;;;;;5028723;28;20037;-86
2021/07/23 11:50:20;;;;;;;1.63;0.85;;;34.40;1.00;;;;;;5030124;28;20029;-86
2021/07/23 11:52:49;;;;;;;0.38;0.38;;;33.80;10.90;;;;;;5028900;28;20528;-86
2021/07/23 11:55:17;;;;;;;0.57;0.57;;;33.90;1.70;;;;;;5029867;28;20048;-86
2021/07/23 11:57:47;;;;;;;0.68;0.68;;;34.20;1.10;;;;;;5030150;28;20057;-86
2021/07/23 12:00:24;;;;;;;0.50;0.50;;;34.50;1.70;;;;;;5030213;28;20021;-86
2021/07/23 12:02:52;;;;;;;0.85;0.43;;;35.00;1.00;;;;;;5029988;28;20032;-86
2021/07/23 12:05:19;;;;;;;0.57;0.57;;;34.60;1.00;;;;;;5030104;28;20112;-86
2021/07/23 12:08:04;;;;;;;0.85;0.55;;;33.80;2.50;;;;;;5028504;28;20033;-86
2021/07/23 12:10:34;;;;;;;0.63;0.63;;;33.60;3.50;;;;;;5029714;28;20057;-86
2021/07/23 12:13:11;;;;;;;0.35;0.35;;;33.80;4.10;;;;;;5029758;28;20025;-86
2021/07/23 12:15:56;;;;;;;0.20;0.20;;;33.60;4.90;;;;;;5029560;28;20051;-86
2021/07/23 12:18:24;;;;;;;0.63;0.63;;;33.50;6.40;;;;;;5029621;28;20029;-86
2021/07/23 12:20:50;;;;;;;0.93;0.88;;;33.90;4.80;;;;;;5029856;28;20852;-86
2021/07/23 12:23:26;;;;;;;0.73;0.73;;;34.00;5.40;;;;;;5028357;28;20075;-86
2021/07/23 12:25:54;;;;;;;0.57;0.55;;;33.80;6.60;;;;;;5029753;28;20036;-86
2021/07/23 12:28:20;;;;;;;3.10;0.77;;;33.40;7.00;;;;;;5029172;28;20045;-86
2021/07/23 12:30:47;;;;;;;0.95;0.85;;;33.20;7.70;;;;;;5029288;28;20030;-86
2021/07/23 12:33:15;;;;;;;1.40;0.95;;;32.80;8.60;;;;;;5027994;28;20033;-86
2021/07/23 12:35:45;;;;;;;9.68;1.45;;;32.90;8.30;;;;;;5029083;28;20163;-86
2021/07/23 12:38:13;;;;;;;0.80;0.50;;;32.90;7.50;;;;;;5029281;28;20033;-86
2021/07/23 12:40:50;;;;;;;1.10;0.43;;;33.10;8.00;;;;;;5029142;28;20028;-86
2021/07/23 12:43:18;;;;;;;0.93;0.80;;;33.20;9.40;;;;;;5029143;28;20034;-86
2021/07/23 12:45:45;;;;;;;0.77;0.77;;;33.10;9.10;;;;;;5027694;28;20037;-86
2021/07/23 12:48:13;;;;;;;2.13;1.35;;;32.70;9.90;;;;;;5029392;28;20038;-86
2021/07/23 12:50:40;;;;;;;4.43;1.13;;;32.40;11.60;;;;;;5027433;28;20030;-86
2021/07/23 12:53:07;;;;;;;0.98;0.90;;;32.30;11.20;;;;;;5029277;28;20026;-86
2021/07/23 12:55:33;;;;;;;1.23;0.88;;;32.50;12.20;;;;;;5028965;28;20049;-86
2021/07/23 12:57:59;;;;;;;3.35;1.85;;;32.40;12.40;;;;;;5027834;28;20497;-86